Time;durP1;ratioP1;P1;durP2;ratioP2;P2;SDS_P1;SDS_P2;PMS_P1;PMS_P2;Temp;Humidity;BMP_temperature;BMP_pressure;BME280_temperature;BME280_humidity;BME280_pressure;Samples;Min_cycle;Max_cycle;Signal;HPM_P1;HPM_P2
2022/05/04 00:00:47;;;;;;;4.18;1.88;;;;;;;21.25;35.37;101884.09;5094297;28;20357;-59
2022/05/04 00:03:12;;;;;;;2.92;1.30;;;;;;;21.21;35.48;101878.19;5093854;28;20563;-59
2022/05/04 00:05:38;;;;;;;4.25;1.92;;;;;;;21.21;35.70;101878.19;5093179;28;20024;-59
2022/05/04 00:08:04;;;;;;;3.92;1.80;;;;;;;21.18;35.41;101876.59;5093621;28;20024;-59
2022/05/04 00:10:44;;;;;;;4.28;1.70;;;;;;;21.18;35.36;101881.06;5094111;28;20059;-59
2022/05/04 00:13:10;;;;;;;4.00;1.63;;;;;;;21.16;35.23;101885.66;5092745;28;20032;-59
2022/05/04 00:15:36;;;;;;;4.10;1.60;;;;;;;21.15;35.43;101883.97;5094006;28;20028;-59
2022/05/04 00:18:02;;;;;;;4.40;1.75;;;;;;;21.13;35.26;101878.78;5093251;28;20067;-59
2022/05/04 00:20:27;;;;;;;3.47;1.85;;;;;;;21.12;35.18;101882.38;5093130;28;20451;-59
2022/05/04 00:23:16;;;;;;;4.33;1.60;;;;;;;21.11;35.22;101879.84;5093637;28;20070;-59
2022/05/04 00:25:41;;;;;;;4.35;1.70;;;;;;;21.09;35.13;101882.63;5093016;28;20269;-59
2022/05/04 00:28:06;;;;;;;3.37;1.57;;;;;;;21.08;35.25;101880.94;5092577;28;20024;-60
2022/05/04 00:30:32;;;;;;;5.43;2.00;;;;;;;21.07;35.41;101878.41;5093393;28;20027;-60
2022/05/04 00:33:03;;;;;;;4.10;1.60;;;;;;;21.06;35.33;101879.38;5093165;28;20107;-60
2022/05/04 00:35:29;;;;;;;4.22;1.65;;;;;;;21.05;35.27;101872.41;5092741;28;20133;-60
2022/05/04 00:37:54;;;;;;;3.97;1.50;;;;;;;21.03;35.33;101885.78;5093100;28;20459;-60
2022/05/04 00:40:19;;;;;;;3.17;1.60;;;;;;;21.04;35.23;101883.94;5092777;28;20028;-59
2022/05/04 00:42:45;;;;;;;3.33;1.63;;;;;;;21.03;35.23;101883.13;5093291;28;20024;-60
2022/05/04 00:45:10;;;;;;;2.80;1.47;;;;;;;21.01;35.16;101885.88;5092991;28;20028;-60
2022/05/04 00:47:35;;;;;;;4.73;1.93;;;;;;;21.00;35.44;101880.72;5092466;28;20025;-59
2022/05/04 00:50:04;;;;;;;4.05;1.48;;;;;;;20.99;35.32;101868.41;5093180;28;20300;-60
2022/05/04 00:52:42;;;;;;;5.32;1.80;;;;;;;20.98;35.12;101869.34;5093312;28;20025;-59
2022/05/04 00:55:09;;;;;;;4.05;1.90;;;;;;;20.96;35.34;101876.59;5092210;28;20031;-60
2022/05/04 01:00:23;;;;;;;3.33;1.60;;;;;;;20.94;35.24;101879.38;5093460;28;20066;-59
2022/05/04 01:02:48;;;;;;;5.00;1.90;;;;;;;20.94;35.08;101876.72;5092109;28;20432;-59
2022/05/04 01:05:14;;;;;;;4.22;1.67;;;;;;;20.94;35.19;101875.88;5093260;28;20079;-59
2022/05/04 01:07:41;;;;;;;5.28;1.75;;;;;;;20.92;35.39;101876.00;5092980;28;20027;-59
2022/05/04 01:10:07;;;;;;;4.22;1.90;;;;;;;20.92;35.04;101876.00;5091737;28;20084;-60
2022/05/04 01:12:33;;;;;;;3.45;1.70;;;;;;;20.91;35.02;101874.28;5092785;28;20048;-59
2022/05/04 01:14:59;;;;;;;5.45;2.22;;;;;;;20.90;35.19;101861.16;5092909;28;20088;-59
2022/05/04 01:17:26;;;;;;;4.78;1.90;;;;;;;20.91;35.06;101876.13;5092376;28;20089;-59
2022/05/04 01:19:52;;;;;;;3.45;1.67;;;;;;;20.90;35.28;101882.38;5092678;28;20028;-59
2022/05/04 01:22:17;;;;;;;5.10;1.70;;;;;;;20.88;35.16;101874.53;5092982;28;20105;-59
2022/05/04 01:24:45;;;;;;;4.43;1.80;;;;;;;20.87;35.14;101875.50;5091988;28;20032;-59
2022/05/04 01:27:13;;;;;;;4.47;1.83;;;;;;;20.87;35.18;101879.94;5092552;28;20288;-59
2022/05/04 01:29:38;;;;;;;3.63;1.52;;;;;;;20.87;35.16;101874.66;5092283;28;20020;-59
2022/05/04 01:32:04;;;;;;;3.30;1.57;;;;;;;20.86;35.24;101875.63;5092573;28;20031;-59
2022/05/04 01:34:30;;;;;;;3.63;1.58;;;;;;;20.87;35.24;101882.59;5092700;28;20265;-59
2022/05/04 01:36:57;;;;;;;4.10;1.63;;;;;;;20.86;35.33;101872.97;5091682;28;20087;-59
2022/05/04 01:39:23;;;;;;;4.57;1.70;;;;;;;20.86;35.18;101878.28;5092629;28;20261;-59
2022/05/04 01:42:03;;;;;;;5.60;1.70;;;;;;;20.84;35.08;101881.03;5096879;28;20035;-60
2022/05/04 01:44:33;;;;;;;3.70;1.50;;;;;;;20.84;35.10;101875.75;5096183;28;20016;-60
2022/05/04 01:46:59;;;;;;;4.93;1.77;;;;;;;20.84;34.91;101873.09;5096481;28;20023;-60
2022/05/04 01:49:26;;;;;;;4.13;1.58;;;;;;;20.83;35.13;101866.09;5096835;28;20028;-59
2022/05/04 01:51:52;;;;;;;5.10;1.60;;;;;;;20.83;35.08;101871.41;5095675;28;20032;-59
2022/05/04 01:54:17;;;;;;;4.53;1.77;;;;;;;20.82;35.07;101870.56;5096879;28;20032;-60
2022/05/04 01:56:43;;;;;;;4.25;1.55;;;;;;;20.80;35.18;101872.47;5097923;28;20654;-60
2022/05/04 01:59:08;;;;;;;3.92;1.60;;;;;;;20.82;35.04;101870.56;5096456;28;20453;-60
2022/05/04 02:01:34;;;;;;;4.85;1.85;;;;;;;20.81;34.95;101868.88;5097065;28;20446;-59
2022/05/04 02:04:02;;;;;;;3.70;1.52;;;;;;;20.80;35.13;101863.69;5096438;28;20020;-59
2022/05/04 02:06:27;;;;;;;4.38;1.70;;;;;;;20.81;35.23;101862.72;5095798;28;20036;-59
2022/05/04 02:08:55;;;;;;;3.42;1.42;;;;;;;20.80;35.01;101863.69;5096341;28;20028;-59
2022/05/04 02:11:21;;;;;;;3.50;1.75;;;;;;;20.79;34.94;101867.28;5096241;28;20476;-60
2022/05/04 02:13:46;;;;;;;3.97;1.60;;;;;;;20.78;35.00;101863.81;5095325;28;20054;-60
2022/05/04 02:16:11;;;;;;;4.28;1.80;;;;;;;20.78;35.09;101869.09;5095939;28;20295;-60
2022/05/04 02:18:37;;;;;;;4.85;1.70;;;;;;;20.77;35.21;101864.75;5096057;28;20028;-60
2022/05/04 02:21:02;;;;;;;4.50;1.87;;;;;;;20.78;34.91;101865.63;5095173;28;20028;-60
2022/05/04 02:23:27;;;;;;;3.95;1.67;;;;;;;20.79;34.95;101868.16;5096041;28;20593;-60
2022/05/04 02:25:53;;;;;;;3.72;1.83;;;;;;;20.76;34.87;101860.44;5095109;28;20035;-60
2022/05/04 02:28:18;;;;;;;5.07;2.00;;;;;;;20.77;34.83;101858.63;5095940;28;20028;-60
2022/05/04 02:30:44;;;;;;;3.75;1.50;;;;;;;20.75;35.07;101858.72;5095933;28;20268;-60
2022/05/04 02:33:10;;;;;;;3.70;1.50;;;;;;;20.74;34.90;101859.69;5094880;28;20031;-58
2022/05/04 02:38:22;;;;;;;4.45;1.83;;;;;;;20.73;34.91;101854.50;5095728;28;20034;-58
2022/05/04 02:40:48;;;;;;;4.43;1.70;;;;;;;20.73;34.74;101858.00;5095088;28;20024;-60
2022/05/04 02:43:17;;;;;;;3.97;1.63;;;;;;;20.74;34.86;101853.56;5096035;28;20024;-59
2022/05/04 02:45:42;;;;;;;3.45;1.65;;;;;;;20.73;34.85;101862.44;5096048;28;20068;-60
2022/05/04 02:48:08;;;;;;;4.57;1.50;;;;;;;20.72;34.71;101860.78;5095064;28;20109;-60
2022/05/04 02:50:34;;;;;;;4.82;1.77;;;;;;;20.70;34.92;101852.94;5096171;28;20032;-59
2022/05/04 02:52:59;;;;;;;3.63;1.75;;;;;;;20.71;34.83;101845.84;5094604;28;20535;-60
2022/05/04 02:55:24;;;;;;;5.38;1.80;;;;;;;20.71;34.81;101851.13;5094829;28;20032;-59
2022/05/04 02:57:50;;;;;;;3.70;1.52;;;;;;;20.71;34.92;101852.00;5095069;28;20391;-59
2022/05/04 03:00:15;;;;;;;3.30;1.37;;;;;;;20.70;34.89;101850.31;5095356;28;20027;-59
2022/05/04 03:02:41;;;;;;;5.72;1.63;;;;;;;20.70;34.75;101850.31;5094336;28;20311;-58
2022/05/04 03:05:08;;;;;;;3.85;1.60;;;;;;;20.69;34.66;101842.47;5095201;28;20020;-59
2022/05/04 03:07:34;;;;;;;4.85;1.80;;;;;;;20.69;34.96;101837.19;5095325;28;20032;-59
2022/05/04 03:09:59;;;;;;;4.40;1.67;;;;;;;20.68;34.85;101839.00;5094193;28;20108;-60
2022/05/04 03:12:25;;;;;;;4.22;1.60;;;;;;;20.68;35.00;101843.41;5095075;28;20488;-59
2022/05/04 03:14:51;;;;;;;4.18;1.75;;;;;;;20.67;34.80;101841.75;5094852;28;20020;-59
2022/05/04 03:17:18;;;;;;;3.35;1.73;;;;;;;20.66;34.59;101838.25;5094192;28;20020;-60
2022/05/04 03:19:44;;;;;;;4.13;1.70;;;;;;;20.67;34.90;101839.09;5094804;28;20506;-59
2022/05/04 03:22:10;;;;;;;4.65;1.60;;;;;;;20.64;34.71;101837.53;5093952;28;20028;-60
2022/05/04 03:24:35;;;;;;;3.70;1.52;;;;;;;20.64;34.65;101834.88;5095026;28;20016;-58
2022/05/04 03:27:04;;;;;;;5.13;2.03;;;;;;;20.63;34.82;101833.16;5094526;28;20028;-59
2022/05/04 03:29:29;;;;;;;4.60;1.60;;;;;;;20.62;34.66;101834.13;5093941;28;20016;-59
2022/05/04 03:31:54;;;;;;;3.97;1.50;;;;;;;20.61;34.70;101825.31;5094396;28;20094;-59
2022/05/04 03:34:20;;;;;;;4.37;1.50;;;;;;;20.60;34.66;101826.31;5094752;28;20102;-59
2022/05/04 03:36:45;;;;;;;4.03;1.60;;;;;;;20.59;34.36;101834.34;5093963;28;20426;-59
2022/05/04 03:39:11;;;;;;;3.63;1.50;;;;;;;20.59;34.75;101837.84;5094395;28;20024;-59
2022/05/04 03:41:36;;;;;;;4.72;1.75;;;;;;;20.59;34.66;101832.53;5094596;28;20077;-59
2022/05/04 03:44:05;;;;;;;4.15;1.42;;;;;;;20.59;34.71;101834.34;5093314;28;20379;-59
2022/05/04 03:46:51;;;;;;;4.07;1.67;;;;;;;20.59;34.81;101837.00;5094373;28;20024;-60
2022/05/04 03:49:18;;;;;;;3.47;1.50;;;;;;;20.58;34.75;101830.84;5094488;28;20055;-59
2022/05/04 03:51:44;;;;;;;4.88;1.70;;;;;;;20.59;34.54;101837.84;5093460;28;20486;-60
2022/05/04 03:54:10;;;;;;;4.85;1.90;;;;;;;20.57;34.58;101839.78;5094236;28;20099;-58
2022/05/04 03:56:37;;;;;;;3.83;1.70;;;;;;;20.57;34.67;101841.56;5093650;28;20097;-58
2022/05/04 03:59:03;;;;;;;3.22;1.60;;;;;;;20.56;34.68;101831.94;5092978;28;20028;-58
2022/05/04 04:01:28;;;;;;;5.60;1.70;;;;;;;20.56;34.68;101834.59;5094417;28;20028;-59
2022/05/04 04:03:54;;;;;;;4.72;1.80;;;;;;;20.55;34.82;101836.38;5093028;28;20359;-60
2022/05/04 04:06:19;;;;;;;3.97;1.50;;;;;;;20.54;34.68;101834.72;5093450;28;20024;-60
2022/05/04 04:08:44;;;;;;;3.85;1.40;;;;;;;20.53;34.64;101838.31;5094100;28;20425;-60
2022/05/04 04:11:10;;;;;;;4.35;1.63;;;;;;;20.53;34.65;101837.47;5093897;28;20028;-60
2022/05/04 04:13:39;;;;;;;4.10;1.58;;;;;;;20.52;34.56;101838.41;5093011;28;20040;-59
2022/05/04 04:16:05;;;;;;;3.70;1.70;;;;;;;20.52;34.49;101836.63;5093502;28;20379;-60
2022/05/04 04:18:30;;;;;;;5.35;1.80;;;;;;;20.51;34.46;101831.47;5093183;28;20023;-59
2022/05/04 04:23:40;;;;;;;5.25;1.65;;;;;;;20.49;34.48;101834.22;5094099;28;20501;-59
2022/05/04 04:26:06;;;;;;;4.97;2.22;;;;;;;20.50;34.50;101835.06;5092722;28;20028;-60
2022/05/04 04:28:36;;;;;;;4.50;1.45;;;;;;;20.48;34.66;101827.22;5093923;28;20016;-59
2022/05/04 04:31:05;;;;;;;5.20;2.00;;;;;;;20.48;34.72;101835.16;5093455;28;20024;-59
2022/05/04 04:33:30;;;;;;;4.70;1.70;;;;;;;20.46;34.56;101827.34;5092771;28;20103;-59
2022/05/04 04:35:56;;;;;;;4.88;1.60;;;;;;;20.46;34.42;101830.00;5093225;28;20059;-60
2022/05/04 04:38:22;;;;;;;4.95;1.63;;;;;;;20.47;34.59;101838.75;5093337;28;20111;-59
2022/05/04 04:40:47;;;;;;;4.10;1.70;;;;;;;20.46;34.63;101839.75;5092903;28;20107;-60
2022/05/04 04:43:14;;;;;;;3.63;1.60;;;;;;;20.46;34.59;101840.56;5093316;28;20471;-59
2022/05/04 04:45:40;;;;;;;3.35;1.50;;;;;;;20.47;34.56;101846.72;5093457;28;20017;-59
2022/05/04 04:48:05;;;;;;;5.68;1.85;;;;;;;20.46;34.58;101839.75;5092336;28;20076;-59
2022/05/04 04:50:30;;;;;;;5.32;1.83;;;;;;;20.45;34.36;101838.88;5093380;28;20027;-59
2022/05/04 04:52:55;;;;;;;3.47;1.60;;;;;;;20.45;34.55;101840.69;5092927;28;20107;-59
2022/05/04 04:55:26;;;;;;;3.70;1.40;;;;;;;20.42;34.34;101835.63;5092214;28;20272;-59
2022/05/04 04:57:52;;;;;;;3.47;1.55;;;;;;;20.43;34.49;101840.81;5092891;28;20028;-59
2022/05/04 05:00:24;;;;;;;4.13;1.90;;;;;;;20.44;34.54;101834.56;5093071;28;20020;-60
2022/05/04 05:02:50;;;;;;;4.57;1.73;;;;;;;20.44;34.61;101846.94;5091936;28;20027;-59
2022/05/04 05:05:15;;;;;;;3.50;1.55;;;;;;;20.43;34.49;101839.97;5092862;28;20024;-59
2022/05/04 05:07:40;;;;;;;5.97;1.90;;;;;;;20.39;34.53;101834.03;5091919;28;20024;-59
2022/05/04 05:10:06;;;;;;;4.17;1.43;;;;;;;20.42;34.44;101839.13;5092454;28;20085;-59
2022/05/04 05:12:32;;;;;;;4.43;1.52;;;;;;;20.42;34.31;101840.94;5092734;28;20368;-59
2022/05/04 05:18:03;;;;;;;5.25;1.70;;;;;;;20.41;34.41;101850.69;5089678;28;20411;-59
2022/05/04 05:20:30;;;;;;;4.88;1.80;;;;;;;20.41;34.41;101848.03;5092887;28;20051;-59
2022/05/04 05:22:56;;;;;;;5.05;1.60;;;;;;;20.39;34.59;101846.44;5091763;28;20099;-59
2022/05/04 05:25:21;;;;;;;4.57;1.60;;;;;;;20.39;34.88;101849.09;5092591;28;20056;-59
2022/05/04 05:27:46;;;;;;;3.47;1.40;;;;;;;20.38;34.96;101848.25;5092802;28;20028;-59
2022/05/04 05:30:15;;;;;;;3.70;1.60;;;;;;;20.39;35.33;101857.03;5091640;28;20284;-59
2022/05/04 05:32:40;;;;;;;5.03;1.60;;;;;;;20.42;35.83;101856.81;5092494;28;20464;-59
2022/05/04 05:35:06;;;;;;;4.68;2.22;;;;;;;20.35;33.12;101852.94;5092257;28;20032;-60
2022/05/04 05:37:32;;;;;;;5.30;2.17;;;;;;;20.24;35.04;101851.94;5091584;28;20020;-60
2022/05/04 05:39:57;;;;;;;4.72;1.70;;;;;;;20.24;35.71;101849.28;5092512;28;20016;-64
2022/05/04 05:42:23;;;;;;;4.13;1.67;;;;;;;20.24;36.18;101851.94;5092520;28;20122;-61
2022/05/04 05:44:48;;;;;;;3.75;1.50;;;;;;;20.24;36.03;101851.09;5091598;28;20031;-63
2022/05/04 05:47:13;;;;;;;5.55;1.60;;;;;;;20.26;36.24;101847.34;5092461;28;20026;-61
2022/05/04 05:49:39;;;;;;;4.00;1.70;;;;;;;20.30;36.25;101855.94;5092643;28;20042;-63
2022/05/04 05:52:08;;;;;;;3.57;1.33;;;;;;;20.35;36.39;101845.84;5091296;28;20296;-62
2022/05/04 05:54:33;;;;;;;5.30;1.50;;;;;;;20.37;36.32;101846.56;5092342;28;20298;-62
2022/05/04 05:56:59;;;;;;;4.68;1.38;;;;;;;20.41;36.53;101853.31;5091267;28;20041;-63
2022/05/04 05:59:24;;;;;;;5.15;1.65;;;;;;;20.44;36.40;101855.75;5092510;28;20395;-62
2022/05/04 06:01:49;;;;;;;4.05;1.40;;;;;;;20.47;36.38;101850.22;5091981;28;20051;-63
2022/05/04 06:04:14;;;;;;;3.67;1.27;;;;;;;20.47;36.20;101852.88;5091888;28;20493;-61
2022/05/04 06:06:40;;;;;;;2.60;1.20;;;;;;;20.51;36.34;101847.34;5092549;28;20780;-61
2022/05/04 06:09:05;;;;;;;4.17;1.33;;;;;;;20.53;36.24;101859.50;5092167;28;20299;-59
2022/05/04 06:11:34;;;;;;;3.07;1.17;;;;;;;20.54;35.83;101855.88;5091678;28;20276;-59
2022/05/04 06:14:02;;;;;;;4.65;1.40;;;;;;;20.57;35.92;101853.00;5091862;28;20299;-59
2022/05/04 06:16:28;;;;;;;4.32;1.52;;;;;;;20.56;36.15;101864.56;5092147;28;20062;-59
2022/05/04 06:18:53;;;;;;;4.32;1.50;;;;;;;20.54;36.56;101863.84;5091273;28;20032;-58
2022/05/04 06:21:24;;;;;;;4.05;1.73;;;;;;;20.53;36.56;101863.94;5092324;28;20032;-60
2022/05/04 06:23:49;;;;;;;4.43;1.55;;;;;;;20.53;36.51;101871.91;5091757;28;20016;-58
2022/05/04 06:26:15;;;;;;;4.03;1.57;;;;;;;20.52;36.52;101872.84;5091452;28;20028;-58
2022/05/04 06:28:40;;;;;;;3.20;1.35;;;;;;;20.50;36.63;101867.66;5095634;28;20023;-58
2022/05/04 06:34:07;;;;;;;3.90;1.30;;;;;;;20.53;36.74;101871.91;5095136;28;20027;-58
2022/05/04 06:36:33;;;;;;;3.75;1.40;;;;;;;20.54;36.70;101869.13;5095916;28;20107;-58
2022/05/04 06:39:01;;;;;;;3.40;1.30;;;;;;;20.56;36.60;101869.03;5095149;28;20063;-63
2022/05/04 06:41:27;;;;;;;6.00;1.70;;;;;;;20.66;36.33;101872.69;5095521;28;20498;-59
2022/05/04 06:43:52;;;;;;;3.92;1.30;;;;;;;20.73;36.28;101876.56;5095965;28;20032;-59
2022/05/04 06:46:18;;;;;;;3.30;1.20;;;;;;;20.75;36.19;101879.94;5095558;28;20491;-60
2022/05/04 06:48:46;;;;;;;3.47;1.30;;;;;;;20.76;35.98;101880.75;5095816;28;20449;-60
2022/05/04 06:51:11;;;;;;;3.58;1.50;;;;;;;20.73;36.14;101881.84;5095132;28;20261;-60
2022/05/04 06:53:37;;;;;;;3.92;1.45;;;;;;;20.76;36.30;101886.94;5094584;28;20471;-60
2022/05/04 06:56:02;;;;;;;4.15;1.33;;;;;;;20.80;36.00;101877.75;5094940;28;20028;-60
2022/05/04 06:58:27;;;;;;;3.25;1.17;;;;;;;20.87;36.00;101883.47;5095096;28;20372;-60
2022/05/04 07:00:53;;;;;;;4.25;1.50;;;;;;;20.95;35.80;101885.50;5094228;28;20027;-61
2022/05/04 07:03:19;;;;;;;3.25;1.23;;;;;;;20.99;35.57;101879.84;5095344;28;20494;-59
2022/05/04 07:05:45;;;;;;;3.33;1.30;;;;;;;21.01;35.70;101869.13;5095638;28;20024;-61
2022/05/04 07:08:10;;;;;;;4.45;1.40;;;;;;;21.01;35.92;101871.78;5094024;28;20024;-59
2022/05/04 07:10:35;;;;;;;4.00;1.48;;;;;;;21.04;35.68;101870.72;5094969;28;20039;-58
2022/05/04 07:13:01;;;;;;;5.57;1.60;;;;;;;21.07;35.58;101873.94;5094613;28;20138;-58
2022/05/04 07:15:26;;;;;;;3.80;1.42;;;;;;;21.09;35.51;101872.00;5094241;28;20024;-59
2022/05/04 07:17:51;;;;;;;5.80;1.57;;;;;;;21.13;35.35;101867.34;5094624;28;20499;-59
2022/05/04 07:20:16;;;;;;;4.00;1.40;;;;;;;21.13;35.17;101872.66;5095066;28;20609;-59
2022/05/04 07:22:42;;;;;;;3.63;1.20;;;;;;;21.16;34.97;101865.28;5094033;28;20498;-59
2022/05/04 07:25:07;;;;;;;3.28;1.40;;;;;;;21.18;35.24;101862.53;5094439;28;20423;-59
2022/05/04 07:27:33;;;;;;;5.90;1.30;;;;;;;21.18;35.32;101860.69;5094747;28;20028;-59
2022/05/04 07:30:01;;;;;;;3.97;1.38;;;;;;;21.19;35.12;101858.91;5093702;28;20031;-59
2022/05/04 07:32:29;;;;;;;5.03;1.60;;;;;;;21.19;35.02;101859.75;5094677;28;20036;-59
2022/05/04 07:34:55;;;;;;;3.10;1.48;;;;;;;21.20;35.00;101857.94;5094380;28;20028;-59
2022/05/04 07:37:20;;;;;;;5.10;1.20;;;;;;;21.20;35.22;101860.59;5093524;28;20034;-60
2022/05/04 07:42:29;;;;;;;5.07;1.47;;;;;;;21.19;35.21;101859.75;5094058;28;20066;-61
2022/05/04 07:45:05;;;;;;;4.57;1.40;;;;;;;21.19;35.12;101866.88;5094246;28;20031;-59
2022/05/04 07:47:34;;;;;;;3.88;1.00;;;;;;;21.19;35.10;101864.22;5094526;28;20115;-59
2022/05/04 07:49:59;;;;;;;3.78;1.40;;;;;;;21.21;35.18;101870.22;5093287;28;20478;-59
2022/05/04 07:52:25;;;;;;;3.85;1.50;;;;;;;21.22;35.28;101869.28;5094272;28;20055;-59
2022/05/04 07:54:53;;;;;;;3.60;1.23;;;;;;;21.22;35.29;101868.41;5094119;28;20023;-59
2022/05/04 07:57:19;;;;;;;4.15;1.50;;;;;;;21.22;35.26;101873.72;5093288;28;20118;-59
2022/05/04 08:05:13;;;;;;;3.75;1.33;;;;;;;21.25;35.34;101870.81;5093201;28;20182;-58
2022/05/04 08:07:38;;;;;;;3.97;1.40;;;;;;;21.25;35.82;101874.31;5094080;28;20103;-60
2022/05/04 08:10:04;;;;;;;4.20;1.23;;;;;;;21.26;35.42;101876.00;5093584;28;20739;-59
2022/05/04 08:12:29;;;;;;;3.55;1.52;;;;;;;21.22;35.53;101873.72;5092681;28;20287;-60
2022/05/04 08:14:54;;;;;;;5.27;1.60;;;;;;;21.20;35.45;101865.88;5093571;28;20085;-60
2022/05/04 08:17:20;;;;;;;3.90;1.40;;;;;;;21.22;35.65;101871.06;5093528;28;20296;-60
2022/05/04 08:19:45;;;;;;;4.80;1.30;;;;;;;21.22;35.47;101869.28;5093142;28;20028;-60
2022/05/04 08:22:14;;;;;;;3.97;1.53;;;;;;;21.25;35.40;101870.81;5093472;28;20027;-60
2022/05/04 08:24:39;;;;;;;4.85;1.60;;;;;;;21.26;35.52;101869.88;5092809;28;20099;-59
2022/05/04 08:27:05;;;;;;;6.68;1.60;;;;;;;21.26;35.33;101870.72;5093304;28;20464;-59
2022/05/04 08:29:30;;;;;;;4.88;1.55;;;;;;;21.25;35.56;101866.34;5093622;28;20028;-60
2022/05/04 08:31:58;;;;;;;4.23;1.67;;;;;;;21.27;35.53;101866.25;5092709;28;20402;-60
2022/05/04 08:34:23;;;;;;;6.38;1.50;;;;;;;21.28;35.51;101873.25;5095446;28;20339;-60
2022/05/04 08:36:48;;;;;;;4.05;1.40;;;;;;;21.30;35.40;101877.47;5095066;28;20475;-60
2022/05/04 08:39:14;;;;;;;6.33;2.27;;;;;;;21.35;35.43;101877.09;5094059;28;20031;-59
2022/05/04 08:41:43;;;;;;;5.13;1.53;;;;;;;21.42;35.23;101886.25;5094187;28;20016;-60
2022/05/04 08:44:13;;;;;;;3.17;1.27;;;;;;;21.44;35.25;101876.34;5093220;28;20413;-59
2022/05/04 08:46:43;;;;;;;4.97;1.73;;;;;;;21.47;35.33;101873.47;5092919;28;20051;-60
2022/05/04 08:49:12;;;;;;;5.20;1.83;;;;;;;21.49;35.17;101871.59;5092605;28;20040;-58
2022/05/04 08:51:39;;;;;;;4.38;1.33;;;;;;;21.50;35.16;101865.28;5093395;28;20020;-58
2022/05/04 08:54:06;;;;;;;4.35;1.90;;;;;;;21.50;35.21;101867.13;5092284;28;20023;-59
2022/05/04 08:56:35;;;;;;;3.88;1.48;;;;;;;21.49;35.20;101866.28;5093244;28;20063;-59
2022/05/04 08:59:07;;;;;;;3.50;1.40;;;;;;;21.49;35.13;101874.25;5092652;28;20035;-60
2022/05/04 09:01:36;;;;;;;4.22;1.58;;;;;;;21.50;35.06;101870.59;5092675;28;20024;-58
2022/05/04 09:04:01;;;;;;;5.45;1.60;;;;;;;21.50;35.13;101872.41;5093056;28;20012;-59
2022/05/04 09:06:28;;;;;;;5.15;1.60;;;;;;;21.51;35.31;101872.31;5093140;28;20475;-59
2022/05/04 09:09:06;;;;;;;3.30;1.38;;;;;;;21.50;35.23;101867.94;5092131;28;20032;-59
2022/05/04 09:11:32;;;;;;;5.10;1.55;;;;;;;21.51;35.01;101871.47;5093155;28;20520;-59
2022/05/04 09:14:07;;;;;;;3.47;1.40;;;;;;;21.50;34.73;101867.13;5091741;28;20463;-59
2022/05/04 09:16:33;;;;;;;5.00;1.85;;;;;;;21.52;34.81;101865.19;5094508;28;20020;-60
2022/05/04 09:19:04;;;;;;;4.55;1.83;;;;;;;21.56;34.79;101859.50;5093776;28;20114;-60
2022/05/04 09:21:30;;;;;;;3.60;1.52;;;;;;;21.58;34.74;101855.91;5092761;28;20035;-60
2022/05/04 09:23:56;;;;;;;4.85;1.75;;;;;;;21.59;34.40;101857.56;5092775;28;20024;-62
2022/05/04 09:26:22;;;;;;;4.53;1.60;;;;;;;21.62;34.68;101854.66;5093718;28;20035;-63
2022/05/04 09:28:56;;;;;;;4.60;1.42;;;;;;;21.64;34.57;101853.59;5092800;28;20031;-63
2022/05/04 09:31:32;;;;;;;5.00;1.73;;;;;;;21.65;34.75;101855.28;5093071;28;20051;-64
2022/05/04 09:34:06;;;;;;;4.45;1.60;;;;;;;21.69;34.72;101862.00;5092550;28;20028;-67
2022/05/04 09:36:32;;;;;;;4.60;1.90;;;;;;;21.71;34.75;101857.44;5092094;28;20032;-66
2022/05/04 09:44:55;;;;;;;4.05;1.75;;;;;;;21.73;34.86;101849.38;5092078;28;20461;-61
2022/05/04 09:47:23;;;;;;;4.72;1.42;;;;;;;21.72;35.04;101845.84;5092549;28;20040;-62
2022/05/04 09:49:50;;;;;;;4.15;1.60;;;;;;;21.72;35.15;101848.50;5091596;28;20044;-62
2022/05/04 09:52:21;;;;;;;4.28;1.40;;;;;;;21.72;34.99;101848.50;5092499;28;20024;-62
2022/05/04 09:54:46;;;;;;;5.68;1.50;;;;;;;21.72;34.86;101843.19;5092503;28;20027;-62
2022/05/04 09:57:12;;;;;;;4.78;1.60;;;;;;;21.72;34.96;101839.72;5090985;28;20021;-61
2022/05/04 09:59:37;;;;;;;4.90;1.85;;;;;;;21.72;35.04;101831.75;5092200;28;20372;-61
2022/05/04 10:02:07;;;;;;;4.20;1.67;;;;;;;21.72;35.18;101834.41;5093263;28;20028;-61
2022/05/04 10:04:34;;;;;;;4.45;1.70;;;;;;;21.72;35.18;101839.72;5095583;28;20506;-61
2022/05/04 10:07:01;;;;;;;3.95;1.55;;;;;;;21.72;35.18;101839.72;5095976;28;20025;-61
2022/05/04 10:09:30;;;;;;;4.25;1.75;;;;;;;21.71;35.02;101836.22;5096037;28;20435;-63
2022/05/04 10:11:59;;;;;;;5.25;1.77;;;;;;;21.72;35.13;101842.38;5094914;28;20020;-60
2022/05/04 10:14:27;;;;;;;4.15;1.52;;;;;;;21.73;35.11;101839.59;5096337;28;20136;-62
2022/05/04 10:17:00;;;;;;;5.50;2.03;;;;;;;21.68;33.59;101831.16;5096080;28;20448;-60
2022/05/04 10:19:30;;;;;;;5.65;1.90;;;;;;;21.63;33.67;101832.50;5096282;28;20062;-59
2022/05/04 10:22:05;;;;;;;5.25;2.10;;;;;;;21.59;34.19;101831.91;5098451;28;20024;-65
2022/05/04 10:24:35;;;;;;;6.57;1.90;;;;;;;21.60;34.71;101827.44;5097790;28;20417;-63
2022/05/04 10:27:21;;;;;;;6.93;1.50;;;;;;;21.62;34.84;101831.66;5099218;28;20039;-65
2022/05/04 10:32:37;;;;;;;5.07;1.60;;;;;;;21.68;34.76;101831.16;5098343;28;20474;-64
2022/05/04 10:35:22;;;;;;;3.20;1.58;;;;;;;21.71;34.87;101827.41;5098607;28;20036;-65
2022/05/04 10:37:57;;;;;;;4.25;1.73;;;;;;;21.74;34.96;101820.03;5095895;28;20024;-63
2022/05/04 10:40:33;;;;;;;3.05;1.20;;;;;;;21.79;34.86;101821.47;5095201;28;20032;-61
2022/05/04 10:43:12;;;;;;;3.13;1.60;;;;;;;21.79;34.82;101822.31;5095517;28;20036;-62
2022/05/04 10:45:40;;;;;;;5.18;1.75;;;;;;;21.79;34.70;101824.97;5095215;28;20020;-62
2022/05/04 10:48:17;;;;;;;5.10;1.90;;;;;;;21.80;34.83;101831.97;5095866;28;20494;-63
2022/05/04 10:50:58;;;;;;;4.10;1.50;;;;;;;21.84;34.85;101832.53;5096563;28;20081;-67
2022/05/04 10:53:26;;;;;;;3.97;2.00;;;;;;;21.85;34.53;101828.94;5097925;28;20108;-61
2022/05/04 10:56:06;;;;;;;5.10;1.50;;;;;;;21.87;34.58;101824.34;5096119;28;20020;-63
2022/05/04 10:58:39;;;;;;;4.20;1.60;;;;;;;21.87;34.61;101822.56;5096432;28;20107;-62
2022/05/04 11:01:11;;;;;;;5.55;1.70;;;;;;;21.87;34.64;101822.56;5094288;28;20475;-63
2022/05/04 11:03:47;;;;;;;3.83;2.00;;;;;;;21.87;34.08;101816.38;5095210;28;20024;-62
2022/05/04 11:06:22;;;;;;;4.97;1.80;;;;;;;21.87;33.70;101816.38;5095231;28;20027;-62
2022/05/04 11:09:04;;;;;;;10.27;2.60;;;;;;;21.81;33.27;101816.88;5095205;28;20373;-63
2022/05/04 11:11:30;;;;;;;5.10;1.83;;;;;;;21.80;34.10;101820.53;5095124;28;20024;-64
2022/05/04 11:13:55;;;;;;;5.88;2.03;;;;;;;21.80;34.55;101815.22;5093399;28;20051;-63
2022/05/04 11:16:22;;;;;;;6.13;1.50;;;;;;;21.81;34.60;101809.78;5094122;28;20036;-62
2022/05/04 11:18:48;;;;;;;4.07;1.58;;;;;;;21.81;34.50;101806.25;5095095;28;20039;-63
2022/05/04 11:21:15;;;;;;;4.85;1.90;;;;;;;21.81;34.11;101809.78;5094417;28;20383;-61
2022/05/04 11:23:48;;;;;;;5.95;1.90;;;;;;;21.80;34.56;101797.47;5094991;28;20028;-62
2022/05/04 11:26:19;;;;;;;4.13;1.80;;;;;;;21.81;34.47;101811.56;5094885;28;20024;-61
2022/05/04 11:28:45;;;;;;;6.18;1.90;;;;;;;21.81;33.92;101795.66;5094056;28;20066;-63
2022/05/04 11:31:11;;;;;;;3.63;1.63;;;;;;;21.80;34.24;101801.94;5094541;28;20459;-62
2022/05/04 11:33:36;;;;;;;3.60;1.52;;;;;;;21.78;34.54;101802.06;5095111;28;20107;-63
2022/05/04 11:36:02;;;;;;;3.55;1.45;;;;;;;21.77;34.71;101794.22;5094671;28;20060;-64
2022/05/04 11:38:27;;;;;;;4.32;1.60;;;;;;;21.77;34.68;101795.06;5095847;28;20024;-63
2022/05/04 11:40:54;;;;;;;6.70;1.70;;;;;;;21.74;34.69;101792.66;5095428;28;20493;-63
2022/05/04 11:43:33;;;;;;;4.15;1.80;;;;;;;21.74;34.64;101790.84;5094263;28;20441;-63
2022/05/04 11:46:06;;;;;;;4.20;1.95;;;;;;;21.74;34.38;101787.34;5094486;28;20024;-62
2022/05/04 11:48:33;;;;;;;7.30;1.95;;;;;;;21.74;34.00;101780.22;5093759;28;20039;-62
2022/05/04 11:50:58;;;;;;;6.65;1.95;;;;;;;21.75;33.84;101778.44;5093187;28;20040;-63
2022/05/04 11:53:23;;;;;;;4.37;1.67;;;;;;;21.73;34.31;101777.72;5094367;28;20081;-62
2022/05/04 11:55:48;;;;;;;3.90;1.67;;;;;;;21.70;34.46;101770.84;5093163;28;20032;-62